sensor_id;sensor_type;location;lat;lon;timestamp;temperature;humidity
68257;DHT22;55069;51.568;4.656;2022-11-20T00:00:56;2.16;78.75
68257;DHT22;55069;51.568;4.656;2022-11-20T00:03:22;2.16;79.88
68257;DHT22;55069;51.568;4.656;2022-11-20T00:05:47;1.99;78.91
68257;DHT22;55069;51.568;4.656;2022-11-20T00:08:13;1.99;81.11
68257;DHT22;55069;51.568;4.656;2022-11-20T00:10:39;2.03;81.89
68257;DHT22;55069;51.568;4.656;2022-11-20T00:13:05;1.92;78.99
68257;DHT22;55069;51.568;4.656;2022-11-20T00:15:31;1.90;82.43
68257;DHT22;55069;51.568;4.656;2022-11-20T00:17:57;1.70;80.28
68257;DHT22;55069;51.568;4.656;2022-11-20T00:20:23;1.68;81.39
68257;DHT22;55069;51.568;4.656;2022-11-20T00:22:49;1.65;82.99
68257;DHT22;55069;51.568;4.656;2022-11-20T00:25:15;1.56;83.10
68257;DHT22;55069;51.568;4.656;2022-11-20T00:27:40;1.42;82.84
68257;DHT22;55069;51.568;4.656;2022-11-20T00:30:06;1.34;83.18
68257;DHT22;55069;51.568;4.656;2022-11-20T00:32:32;1.23;83.65
68257;DHT22;55069;51.568;4.656;2022-11-20T00:34:57;1.16;84.27
68257;DHT22;55069;51.568;4.656;2022-11-20T00:37:23;1.13;84.88
68257;DHT22;55069;51.568;4.656;2022-11-20T00:39:48;1.05;85.18
68257;DHT22;55069;51.568;4.656;2022-11-20T00:42:14;1.04;85.14
68257;DHT22;55069;51.568;4.656;2022-11-20T00:44:39;0.87;85.25
68257;DHT22;55069;51.568;4.656;2022-11-20T00:47:05;0.86;85.08
68257;DHT22;55069;51.568;4.656;2022-11-20T00:49:30;0.79;85.29
68257;DHT22;55069;51.568;4.656;2022-11-20T00:51:56;0.75;86.34
68257;DHT22;55069;51.568;4.656;2022-11-20T00:54:21;0.72;86.74
68257;DHT22;55069;51.568;4.656;2022-11-20T00:56:47;0.69;86.66
68257;DHT22;55069;51.568;4.656;2022-11-20T00:59:12;0.68;86.80
68257;DHT22;55069;51.568;4.656;2022-11-20T01:01:38;0.72;86.90
68257;DHT22;55069;51.568;4.656;2022-11-20T01:04:04;0.86;86.88
68257;DHT22;55069;51.568;4.656;2022-11-20T01:06:35;1.01;86.98
68257;DHT22;55069;51.568;4.656;2022-11-20T01:09:06;1.16;86.89
68257;DHT22;55069;51.568;4.656;2022-11-20T01:11:37;1.30;85.88
68257;DHT22;55069;51.568;4.656;2022-11-20T01:14:05;1.42;84.77
68257;DHT22;55069;51.568;4.656;2022-11-20T01:16:35;1.47;83.80
68257;DHT22;55069;51.568;4.656;2022-11-20T01:19:03;1.62;84.29
68257;DHT22;55069;51.568;4.656;2022-11-20T01:21:32;1.65;84.47
68257;DHT22;55069;51.568;4.656;2022-11-20T01:23:58;1.72;82.96
68257;DHT22;55069;51.568;4.656;2022-11-20T01:26:26;1.72;83.10
68257;DHT22;55069;51.568;4.656;2022-11-20T01:28:53;1.76;82.76
68257;DHT22;55069;51.568;4.656;2022-11-20T01:31:28;1.79;82.47
68257;DHT22;55069;51.568;4.656;2022-11-20T01:33:55;1.80;82.25
68257;DHT22;55069;51.568;4.656;2022-11-20T01:36:25;1.85;82.07
68257;DHT22;55069;51.568;4.656;2022-11-20T01:38:52;1.87;80.42
68257;DHT22;55069;51.568;4.656;2022-11-20T01:41:18;1.86;81.82
68257;DHT22;55069;51.568;4.656;2022-11-20T01:44:04;1.93;81.21
68257;DHT22;55069;51.568;4.656;2022-11-20T01:46:32;1.95;80.86
68257;DHT22;55069;51.568;4.656;2022-11-20T01:49:04;1.96;81.34
68257;DHT22;55069;51.568;4.656;2022-11-20T01:51:45;2.02;80.78
68257;DHT22;55069;51.568;4.656;2022-11-20T01:54:17;2.00;81.24
68257;DHT22;55069;51.568;4.656;2022-11-20T01:56:45;1.96;80.82
68257;DHT22;55069;51.568;4.656;2022-11-20T01:59:16;2.02;81.26
68257;DHT22;55069;51.568;4.656;2022-11-20T02:01:42;2.02;80.90
68257;DHT22;55069;51.568;4.656;2022-11-20T02:04:08;2.02;80.57
68257;DHT22;55069;51.568;4.656;2022-11-20T02:06:44;2.09;81.02
68257;DHT22;55069;51.568;4.656;2022-11-20T02:09:11;1.99;79.85
68257;DHT22;55069;51.568;4.656;2022-11-20T02:11:37;2.02;80.79
68257;DHT22;55069;51.568;4.656;2022-11-20T02:14:02;1.96;81.30
68257;DHT22;55069;51.568;4.656;2022-11-20T02:16:36;1.97;80.95
68257;DHT22;55069;51.568;4.656;2022-11-20T02:19:04;1.97;81.27
68257;DHT22;55069;51.568;4.656;2022-11-20T02:21:39;1.99;79.17
68257;DHT22;55069;51.568;4.656;2022-11-20T02:24:13;2.05;81.34
68257;DHT22;55069;51.568;4.656;2022-11-20T02:27:03;2.02;80.98
68257;DHT22;55069;51.568;4.656;2022-11-20T02:29:44;1.97;78.34
68257;DHT22;55069;51.568;4.656;2022-11-20T02:32:20;1.92;79.73
68257;DHT22;55069;51.568;4.656;2022-11-20T02:34:46;1.99;80.87
68257;DHT22;55069;51.568;4.656;2022-11-20T02:37:12;1.93;77.94
68257;DHT22;55069;51.568;4.656;2022-11-20T02:39:38;2.00;80.44
68257;DHT22;55069;51.568;4.656;2022-11-20T02:42:03;2.06;80.26
68257;DHT22;55069;51.568;4.656;2022-11-20T02:44:29;2.07;80.16
68257;DHT22;55069;51.568;4.656;2022-11-20T02:46:57;2.02;80.06
68257;DHT22;55069;51.568;4.656;2022-11-20T02:49:23;2.05;80.54
68257;DHT22;55069;51.568;4.656;2022-11-20T02:51:49;2.03;80.90
68257;DHT22;55069;51.568;4.656;2022-11-20T02:54:14;1.96;80.85
68257;DHT22;55069;51.568;4.656;2022-11-20T02:56:40;1.97;80.40
68257;DHT22;55069;51.568;4.656;2022-11-20T02:59:06;1.87;79.83
68257;DHT22;55069;51.568;4.656;2022-11-20T03:01:31;1.99;80.63
68257;DHT22;55069;51.568;4.656;2022-11-20T03:03:57;2.05;80.70
68257;DHT22;55069;51.568;4.656;2022-11-20T03:06:22;2.05;80.01
68257;DHT22;55069;51.568;4.656;2022-11-20T03:08:49;2.07;80.02
68257;DHT22;55069;51.568;4.656;2022-11-20T03:11:14;2.06;79.30
68257;DHT22;55069;51.568;4.656;2022-11-20T03:13:40;2.10;80.45
68257;DHT22;55069;51.568;4.656;2022-11-20T03:16:11;2.09;79.06
68257;DHT22;55069;51.568;4.656;2022-11-20T03:18:38;2.07;79.51
68257;DHT22;55069;51.568;4.656;2022-11-20T03:21:04;2.07;80.38
68257;DHT22;55069;51.568;4.656;2022-11-20T03:23:30;2.13;80.48
68257;DHT22;55069;51.568;4.656;2022-11-20T03:26:17;2.10;80.23
68257;DHT22;55069;51.568;4.656;2022-11-20T03:28:49;1.95;78.81
68257;DHT22;55069;51.568;4.656;2022-11-20T03:31:17;1.99;80.96
68257;DHT22;55069;51.568;4.656;2022-11-20T03:33:43;2.05;80.36
68257;DHT22;55069;51.568;4.656;2022-11-20T03:36:11;2.09;80.58
68257;DHT22;55069;51.568;4.656;2022-11-20T03:38:37;2.09;81.01
68257;DHT22;55069;51.568;4.656;2022-11-20T03:41:10;1.97;81.01
68257;DHT22;55069;51.568;4.656;2022-11-20T03:43:36;2.05;81.41
68257;DHT22;55069;51.568;4.656;2022-11-20T03:46:03;1.95;80.36
68257;DHT22;55069;51.568;4.656;2022-11-20T03:48:29;2.00;81.86
68257;DHT22;55069;51.568;4.656;2022-11-20T03:51:17;2.05;81.37
68257;DHT22;55069;51.568;4.656;2022-11-20T03:53:45;2.03;80.87
68257;DHT22;55069;51.568;4.656;2022-11-20T03:56:12;2.03;81.79
68257;DHT22;55069;51.568;4.656;2022-11-20T03:58:39;1.96;81.41
68257;DHT22;55069;51.568;4.656;2022-11-20T04:01:17;1.93;81.79
68257;DHT22;55069;51.568;4.656;2022-11-20T04:03:43;1.96;82.21
68257;DHT22;55069;51.568;4.656;2022-11-20T04:06:13;2.02;82.95
68257;DHT22;55069;51.568;4.656;2022-11-20T04:08:40;2.02;82.61
68257;DHT22;55069;51.568;4.656;2022-11-20T04:11:09;2.00;82.65
68257;DHT22;55069;51.568;4.656;2022-11-20T04:13:35;2.13;82.56
68257;DHT22;55069;51.568;4.656;2022-11-20T04:16:01;2.14;81.94
68257;DHT22;55069;51.568;4.656;2022-11-20T04:18:26;2.07;81.47
68257;DHT22;55069;51.568;4.656;2022-11-20T04:20:52;2.06;81.80
68257;DHT22;55069;51.568;4.656;2022-11-20T04:23:17;2.03;81.77
68257;DHT22;55069;51.568;4.656;2022-11-20T04:25:42;2.05;81.85
68257;DHT22;55069;51.568;4.656;2022-11-20T04:28:09;2.02;82.12
68257;DHT22;55069;51.568;4.656;2022-11-20T04:30:34;1.93;82.12
68257;DHT22;55069;51.568;4.656;2022-11-20T04:33:00;1.95;83.37
68257;DHT22;55069;51.568;4.656;2022-11-20T04:35:25;1.92;83.65
68257;DHT22;55069;51.568;4.656;2022-11-20T04:37:51;1.85;83.55
68257;DHT22;55069;51.568;4.656;2022-11-20T04:40:17;1.86;83.67
68257;DHT22;55069;51.568;4.656;2022-11-20T04:42:42;1.75;83.67
68257;DHT22;55069;51.568;4.656;2022-11-20T04:45:08;1.66;83.53
68257;DHT22;55069;51.568;4.656;2022-11-20T04:47:33;1.66;84.31
68257;DHT22;55069;51.568;4.656;2022-11-20T04:49:59;1.62;84.24
68257;DHT22;55069;51.568;4.656;2022-11-20T04:52:25;1.61;84.63
68257;DHT22;55069;51.568;4.656;2022-11-20T04:54:50;1.58;84.72
68257;DHT22;55069;51.568;4.656;2022-11-20T04:57:18;1.54;85.15
68257;DHT22;55069;51.568;4.656;2022-11-20T04:59:44;1.48;84.87
68257;DHT22;55069;51.568;4.656;2022-11-20T05:02:10;1.44;85.80
68257;DHT22;55069;51.568;4.656;2022-11-20T05:04:36;1.38;86.10
68257;DHT22;55069;51.568;4.656;2022-11-20T05:07:01;1.31;86.45
68257;DHT22;55069;51.568;4.656;2022-11-20T05:09:27;1.30;86.06
68257;DHT22;55069;51.568;4.656;2022-11-20T05:11:52;1.16;86.29
68257;DHT22;55069;51.568;4.656;2022-11-20T05:14:17;1.11;86.78
68257;DHT22;55069;51.568;4.656;2022-11-20T05:16:43;1.01;86.72
68257;DHT22;55069;51.568;4.656;2022-11-20T05:19:08;1.00;87.00
68257;DHT22;55069;51.568;4.656;2022-11-20T05:21:34;0.99;87.44
68257;DHT22;55069;51.568;4.656;2022-11-20T05:23:59;0.90;87.59
68257;DHT22;55069;51.568;4.656;2022-11-20T05:26:25;0.79;87.84
68257;DHT22;55069;51.568;4.656;2022-11-20T05:28:51;0.73;88.18
68257;DHT22;55069;51.568;4.656;2022-11-20T05:31:18;0.76;88.43
68257;DHT22;55069;51.568;4.656;2022-11-20T05:33:45;0.73;88.65
68257;DHT22;55069;51.568;4.656;2022-11-20T05:36:12;0.76;88.96
68257;DHT22;55069;51.568;4.656;2022-11-20T05:38:38;0.87;89.18
68257;DHT22;55069;51.568;4.656;2022-11-20T05:41:06;0.99;89.12
68257;DHT22;55069;51.568;4.656;2022-11-20T05:43:33;1.04;89.13
68257;DHT22;55069;51.568;4.656;2022-11-20T05:45:59;1.17;88.73
68257;DHT22;55069;51.568;4.656;2022-11-20T05:48:25;1.19;87.95
68257;DHT22;55069;51.568;4.656;2022-11-20T05:50:50;1.08;87.90
68257;DHT22;55069;51.568;4.656;2022-11-20T05:53:16;1.05;88.10
68257;DHT22;55069;51.568;4.656;2022-11-20T05:55:41;0.99;88.13
68257;DHT22;55069;51.568;4.656;2022-11-20T05:58:07;0.99;88.21
68257;DHT22;55069;51.568;4.656;2022-11-20T06:00:32;0.90;88.29
68257;DHT22;55069;51.568;4.656;2022-11-20T06:02:58;0.82;88.32
68257;DHT22;55069;51.568;4.656;2022-11-20T06:05:23;0.79;88.70
68257;DHT22;55069;51.568;4.656;2022-11-20T06:07:48;0.66;88.78
68257;DHT22;55069;51.568;4.656;2022-11-20T06:10:14;0.61;88.98
68257;DHT22;55069;51.568;4.656;2022-11-20T06:12:39;0.54;89.15
68257;DHT22;55069;51.568;4.656;2022-11-20T06:15:05;0.46;89.36
68257;DHT22;55069;51.568;4.656;2022-11-20T06:17:31;0.41;89.35
68257;DHT22;55069;51.568;4.656;2022-11-20T06:19:56;0.31;89.64
68257;DHT22;55069;51.568;4.656;2022-11-20T06:22:22;0.24;89.93
68257;DHT22;55069;51.568;4.656;2022-11-20T06:24:47;0.24;90.18
68257;DHT22;55069;51.568;4.656;2022-11-20T06:27:13;0.25;90.21
68257;DHT22;55069;51.568;4.656;2022-11-20T06:29:39;0.24;90.28
68257;DHT22;55069;51.568;4.656;2022-11-20T06:32:04;0.19;90.37
68257;DHT22;55069;51.568;4.656;2022-11-20T06:34:29;0.18;90.37
68257;DHT22;55069;51.568;4.656;2022-11-20T06:36:55;0.15;90.58
68257;DHT22;55069;51.568;4.656;2022-11-20T06:39:20;0.19;90.63
68257;DHT22;55069;51.568;4.656;2022-11-20T06:41:46;0.19;90.56
68257;DHT22;55069;51.568;4.656;2022-11-20T06:44:11;0.17;90.66
68257;DHT22;55069;51.568;4.656;2022-11-20T06:46:37;0.17;90.82
68257;DHT22;55069;51.568;4.656;2022-11-20T06:49:02;0.17;90.88
68257;DHT22;55069;51.568;4.656;2022-11-20T06:51:28;0.18;90.79
68257;DHT22;55069;51.568;4.656;2022-11-20T06:53:53;0.29;90.76
68257;DHT22;55069;51.568;4.656;2022-11-20T06:56:19;0.32;90.73
68257;DHT22;55069;51.568;4.656;2022-11-20T06:58:45;0.45;90.63
68257;DHT22;55069;51.568;4.656;2022-11-20T07:01:13;0.49;90.65
68257;DHT22;55069;51.568;4.656;2022-11-20T07:03:39;0.56;90.72
68257;DHT22;55069;51.568;4.656;2022-11-20T07:06:05;0.66;90.73
68257;DHT22;55069;51.568;4.656;2022-11-20T07:08:31;0.76;90.41
68257;DHT22;55069;51.568;4.656;2022-11-20T07:10:59;0.83;90.46
68257;DHT22;55069;51.568;4.656;2022-11-20T07:13:25;0.93;90.16
68257;DHT22;55069;51.568;4.656;2022-11-20T07:15:51;0.99;90.02
68257;DHT22;55069;51.568;4.656;2022-11-20T07:18:17;1.13;89.71
68257;DHT22;55069;51.568;4.656;2022-11-20T07:20:42;1.16;89.57
68257;DHT22;55069;51.568;4.656;2022-11-20T07:23:07;1.23;89.19
68257;DHT22;55069;51.568;4.656;2022-11-20T07:25:33;1.31;89.25
68257;DHT22;55069;51.568;4.656;2022-11-20T07:27:59;1.37;88.71
68257;DHT22;55069;51.568;4.656;2022-11-20T07:30:29;1.38;88.69
68257;DHT22;55069;51.568;4.656;2022-11-20T07:32:55;1.44;88.51
68257;DHT22;55069;51.568;4.656;2022-11-20T07:35:22;1.47;88.39
68257;DHT22;55069;51.568;4.656;2022-11-20T07:37:48;1.47;88.50
68257;DHT22;55069;51.568;4.656;2022-11-20T07:40:14;1.47;88.47
68257;DHT22;55069;51.568;4.656;2022-11-20T07:42:50;1.44;88.42
68257;DHT22;55069;51.568;4.656;2022-11-20T07:45:17;1.47;88.62
68257;DHT22;55069;51.568;4.656;2022-11-20T07:47:43;1.51;88.62
68257;DHT22;55069;51.568;4.656;2022-11-20T07:50:09;1.48;88.66
68257;DHT22;55069;51.568;4.656;2022-11-20T07:52:35;1.50;88.83
68257;DHT22;55069;51.568;4.656;2022-11-20T07:55:00;1.51;89.01
68257;DHT22;55069;51.568;4.656;2022-11-20T07:57:26;1.58;89.00
68257;DHT22;55069;51.568;4.656;2022-11-20T07:59:51;1.61;89.08
68257;DHT22;55069;51.568;4.656;2022-11-20T08:02:17;1.63;89.03
68257;DHT22;55069;51.568;4.656;2022-11-20T08:04:42;1.69;89.23
68257;DHT22;55069;51.568;4.656;2022-11-20T08:07:08;1.72;89.07
68257;DHT22;55069;51.568;4.656;2022-11-20T08:09:33;1.79;88.91
68257;DHT22;55069;51.568;4.656;2022-11-20T08:11:58;1.79;88.88
68257;DHT22;55069;51.568;4.656;2022-11-20T08:14:43;1.83;89.08
68257;DHT22;55069;51.568;4.656;2022-11-20T08:17:08;1.80;89.23
68257;DHT22;55069;51.568;4.656;2022-11-20T08:19:33;1.80;88.93
68257;DHT22;55069;51.568;4.656;2022-11-20T08:21:59;1.83;89.00
68257;DHT22;55069;51.568;4.656;2022-11-20T08:24:24;1.95;88.65
68257;DHT22;55069;51.568;4.656;2022-11-20T08:26:51;2.03;88.42
68257;DHT22;55069;51.568;4.656;2022-11-20T08:29:17;2.13;88.49
68257;DHT22;55069;51.568;4.656;2022-11-20T08:31:42;2.13;88.20
68257;DHT22;55069;51.568;4.656;2022-11-20T08:34:08;2.21;88.08
68257;DHT22;55069;51.568;4.656;2022-11-20T08:36:34;2.20;88.08
68257;DHT22;55069;51.568;4.656;2022-11-20T08:39:00;2.31;88.06
68257;DHT22;55069;51.568;4.656;2022-11-20T08:41:25;2.38;88.01
68257;DHT22;55069;51.568;4.656;2022-11-20T08:43:58;2.40;88.23
68257;DHT22;55069;51.568;4.656;2022-11-20T08:46:25;2.48;88.24
68257;DHT22;55069;51.568;4.656;2022-11-20T08:48:51;2.47;88.20
68257;DHT22;55069;51.568;4.656;2022-11-20T08:51:17;2.52;88.30
68257;DHT22;55069;51.568;4.656;2022-11-20T08:53:43;2.52;88.11
68257;DHT22;55069;51.568;4.656;2022-11-20T08:56:09;2.59;88.19
68257;DHT22;55069;51.568;4.656;2022-11-20T08:58:38;2.66;88.28
68257;DHT22;55069;51.568;4.656;2022-11-20T09:01:04;2.75;88.16
68257;DHT22;55069;51.568;4.656;2022-11-20T09:03:29;2.79;88.11
68257;DHT22;55069;51.568;4.656;2022-11-20T09:06:03;2.88;88.22
68257;DHT22;55069;51.568;4.656;2022-11-20T09:08:29;2.91;88.38
68257;DHT22;55069;51.568;4.656;2022-11-20T09:10:56;2.96;88.36
68257;DHT22;55069;51.568;4.656;2022-11-20T09:13:23;3.00;88.51
68257;DHT22;55069;51.568;4.656;2022-11-20T09:15:55;3.04;88.29
68257;DHT22;55069;51.568;4.656;2022-11-20T09:18:22;3.13;88.37
68257;DHT22;55069;51.568;4.656;2022-11-20T09:20:47;3.20;87.95
68257;DHT22;55069;51.568;4.656;2022-11-20T09:23:14;3.30;87.99
68257;DHT22;55069;51.568;4.656;2022-11-20T09:25:39;3.35;87.66
68257;DHT22;55069;51.568;4.656;2022-11-20T09:28:05;3.35;87.72
68257;DHT22;55069;51.568;4.656;2022-11-20T09:30:30;3.27;88.04
68257;DHT22;55069;51.568;4.656;2022-11-20T09:32:56;3.41;87.92
68257;DHT22;55069;51.568;4.656;2022-11-20T09:35:22;3.48;87.81
68257;DHT22;55069;51.568;4.656;2022-11-20T09:37:47;3.57;87.66
68257;DHT22;55069;51.568;4.656;2022-11-20T09:40:24;3.70;87.48
68257;DHT22;55069;51.568;4.656;2022-11-20T09:51:53;3.81;87.20
68257;DHT22;55069;51.568;4.656;2022-11-20T09:54:27;3.82;87.35
68257;DHT22;55069;51.568;4.656;2022-11-20T09:57:03;3.95;87.31
68257;DHT22;55069;51.568;4.656;2022-11-20T09:59:40;4.00;86.86
68257;DHT22;55069;51.568;4.656;2022-11-20T10:02:24;3.95;86.38
68257;DHT22;55069;51.568;4.656;2022-11-20T10:05:06;3.96;86.89
68257;DHT22;55069;51.568;4.656;2022-11-20T10:21:09;4.13;87.09
68257;DHT22;55069;51.568;4.656;2022-11-20T10:29:09;4.36;86.78
68257;DHT22;55069;51.568;4.656;2022-11-20T10:31:43;4.37;86.23
68257;DHT22;55069;51.568;4.656;2022-11-20T10:34:22;4.36;86.74
68257;DHT22;55069;51.568;4.656;2022-11-20T10:36:54;4.32;86.83
68257;DHT22;55069;51.568;4.656;2022-11-20T10:42:57;4.38;87.02
68257;DHT22;55069;51.568;4.656;2022-11-20T10:47:59;4.46;87.05
68257;DHT22;55069;51.568;4.656;2022-11-20T10:50:26;4.53;87.17
68257;DHT22;55069;51.568;4.656;2022-11-20T10:55:48;4.41;87.33
68257;DHT22;55069;51.568;4.656;2022-11-20T10:58:45;4.44;87.74
68257;DHT22;55069;51.568;4.656;2022-11-20T11:01:19;4.47;88.48
68257;DHT22;55069;51.568;4.656;2022-11-20T11:03:48;4.58;88.74
68257;DHT22;55069;51.568;4.656;2022-11-20T11:06:29;4.51;88.47
68257;DHT22;55069;51.568;4.656;2022-11-20T11:09:02;4.54;88.96
68257;DHT22;55069;51.568;4.656;2022-11-20T11:11:31;4.57;89.22
68257;DHT22;55069;51.568;4.656;2022-11-20T11:14:11;4.53;89.45
68257;DHT22;55069;51.568;4.656;2022-11-20T11:16:49;4.62;90.02
68257;DHT22;55069;51.568;4.656;2022-11-20T11:19:16;4.74;89.88
68257;DHT22;55069;51.568;4.656;2022-11-20T11:21:55;4.74;89.71
68257;DHT22;55069;51.568;4.656;2022-11-20T11:24:30;4.75;89.52
68257;DHT22;55069;51.568;4.656;2022-11-20T11:27:02;4.82;89.18
68257;DHT22;55069;51.568;4.656;2022-11-20T11:29:33;4.89;89.60
68257;DHT22;55069;51.568;4.656;2022-11-20T11:32:12;4.92;89.06
68257;DHT22;55069;51.568;4.656;2022-11-20T11:34:39;5.09;89.23
68257;DHT22;55069;51.568;4.656;2022-11-20T11:37:12;5.15;89.12
68257;DHT22;55069;51.568;4.656;2022-11-20T11:39:42;5.19;88.96
68257;DHT22;55069;51.568;4.656;2022-11-20T11:42:12;5.33;88.60
68257;DHT22;55069;51.568;4.656;2022-11-20T11:44:45;5.39;88.99
68257;DHT22;55069;51.568;4.656;2022-11-20T11:56:17;5.44;88.71
68257;DHT22;55069;51.568;4.656;2022-11-20T12:04:23;5.54;89.15
68257;DHT22;55069;51.568;4.656;2022-11-20T12:07:00;5.60;88.72
68257;DHT22;55069;51.568;4.656;2022-11-20T12:09:35;5.65;88.48
68257;DHT22;55069;51.568;4.656;2022-11-20T12:12:10;5.85;88.57
68257;DHT22;55069;51.568;4.656;2022-11-20T12:14:40;5.90;88.74
68257;DHT22;55069;51.568;4.656;2022-11-20T12:17:12;5.94;88.49
68257;DHT22;55069;51.568;4.656;2022-11-20T12:19:38;5.97;88.48
68257;DHT22;55069;51.568;4.656;2022-11-20T12:24:47;5.87;88.75
68257;DHT22;55069;51.568;4.656;2022-11-20T12:33:12;5.77;89.70
68257;DHT22;55069;51.568;4.656;2022-11-20T12:47:29;6.01;90.17
68257;DHT22;55069;51.568;4.656;2022-11-20T12:52:55;6.12;90.06
68257;DHT22;55069;51.568;4.656;2022-11-20T12:58:13;6.03;89.97
68257;DHT22;55069;51.568;4.656;2022-11-20T13:00:51;5.99;90.17
68257;DHT22;55069;51.568;4.656;2022-11-20T13:03:36;6.02;90.39
68257;DHT22;55069;51.568;4.656;2022-11-20T13:06:16;6.08;90.52
68257;DHT22;55069;51.568;4.656;2022-11-20T13:08:53;6.05;90.63
68257;DHT22;55069;51.568;4.656;2022-11-20T13:11:27;6.06;90.88
68257;DHT22;55069;51.568;4.656;2022-11-20T13:16:37;6.03;90.94
68257;DHT22;55069;51.568;4.656;2022-11-20T13:19:04;6.05;91.30
68257;DHT22;55069;51.568;4.656;2022-11-20T13:21:39;6.02;91.22
68257;DHT22;55069;51.568;4.656;2022-11-20T13:27:02;6.05;91.64
68257;DHT22;55069;51.568;4.656;2022-11-20T13:29:29;6.02;92.00
68257;DHT22;55069;51.568;4.656;2022-11-20T13:32:20;5.98;92.31
68257;DHT22;55069;51.568;4.656;2022-11-20T13:35:01;6.05;92.73
68257;DHT22;55069;51.568;4.656;2022-11-20T13:40:12;6.05;93.11
68257;DHT22;55069;51.568;4.656;2022-11-20T13:42:56;5.99;93.37
68257;DHT22;55069;51.568;4.656;2022-11-20T13:45:25;5.99;93.54
68257;DHT22;55069;51.568;4.656;2022-11-20T13:47:52;5.97;93.84
68257;DHT22;55069;51.568;4.656;2022-11-20T13:50:19;5.97;93.79
68257;DHT22;55069;51.568;4.656;2022-11-20T13:53:05;5.95;94.19
68257;DHT22;55069;51.568;4.656;2022-11-20T13:55:45;5.99;94.40
68257;DHT22;55069;51.568;4.656;2022-11-20T14:01:11;5.97;94.61
68257;DHT22;55069;51.568;4.656;2022-11-20T14:03:40;5.98;94.60
68257;DHT22;55069;51.568;4.656;2022-11-20T14:06:13;6.03;94.56
68257;DHT22;55069;51.568;4.656;2022-11-20T14:08:44;6.06;94.54
68257;DHT22;55069;51.568;4.656;2022-11-20T14:11:25;6.12;94.67
68257;DHT22;55069;51.568;4.656;2022-11-20T14:16:20;6.19;94.79
68257;DHT22;55069;51.568;4.656;2022-11-20T14:18:45;6.23;94.70
68257;DHT22;55069;51.568;4.656;2022-11-20T14:21:11;6.23;94.68
68257;DHT22;55069;51.568;4.656;2022-11-20T14:23:36;6.28;94.60
68257;DHT22;55069;51.568;4.656;2022-11-20T14:26:04;6.29;94.69
68257;DHT22;55069;51.568;4.656;2022-11-20T14:28:30;6.30;94.81
68257;DHT22;55069;51.568;4.656;2022-11-20T14:30:57;6.37;94.72
68257;DHT22;55069;51.568;4.656;2022-11-20T14:33:25;6.28;94.94
68257;DHT22;55069;51.568;4.656;2022-11-20T14:35:53;6.32;95.15
68257;DHT22;55069;51.568;4.656;2022-11-20T14:38:25;6.32;95.24
68257;DHT22;55069;51.568;4.656;2022-11-20T14:40:51;6.39;95.31
68257;DHT22;55069;51.568;4.656;2022-11-20T14:43:27;6.39;95.45
68257;DHT22;55069;51.568;4.656;2022-11-20T14:45:59;6.39;95.48
68257;DHT22;55069;51.568;4.656;2022-11-20T14:48:33;6.43;95.60
68257;DHT22;55069;51.568;4.656;2022-11-20T14:50:59;6.44;95.85
68257;DHT22;55069;51.568;4.656;2022-11-20T14:53:25;6.47;95.96
68257;DHT22;55069;51.568;4.656;2022-11-20T14:56:01;6.54;95.92
68257;DHT22;55069;51.568;4.656;2022-11-20T14:58:32;6.53;95.94
68257;DHT22;55069;51.568;4.656;2022-11-20T15:01:07;6.60;96.05
68257;DHT22;55069;51.568;4.656;2022-11-20T15:03:38;6.63;96.12
68257;DHT22;55069;51.568;4.656;2022-11-20T15:06:09;6.67;96.13
68257;DHT22;55069;51.568;4.656;2022-11-20T15:08:36;6.68;96.17
68257;DHT22;55069;51.568;4.656;2022-11-20T15:11:01;6.73;96.26
68257;DHT22;55069;51.568;4.656;2022-11-20T15:13:38;6.78;96.31
68257;DHT22;55069;51.568;4.656;2022-11-20T15:16:18;6.84;96.34
68257;DHT22;55069;51.568;4.656;2022-11-20T15:18:44;6.85;96.26
68257;DHT22;55069;51.568;4.656;2022-11-20T15:21:11;6.87;96.26
68257;DHT22;55069;51.568;4.656;2022-11-20T15:23:37;6.92;96.31
68257;DHT22;55069;51.568;4.656;2022-11-20T15:26:10;6.91;96.25
68257;DHT22;55069;51.568;4.656;2022-11-20T15:28:39;6.95;96.24
68257;DHT22;55069;51.568;4.656;2022-11-20T15:31:05;6.94;96.26
68257;DHT22;55069;51.568;4.656;2022-11-20T15:33:32;6.99;96.37
68257;DHT22;55069;51.568;4.656;2022-11-20T15:35:57;7.01;96.45
68257;DHT22;55069;51.568;4.656;2022-11-20T15:38:23;7.02;96.44
68257;DHT22;55069;51.568;4.656;2022-11-20T15:40:49;7.05;96.49
68257;DHT22;55069;51.568;4.656;2022-11-20T15:43:14;7.08;96.42
68257;DHT22;55069;51.568;4.656;2022-11-20T15:45:55;7.07;96.43
68257;DHT22;55069;51.568;4.656;2022-11-20T15:48:29;7.07;96.40
68257;DHT22;55069;51.568;4.656;2022-11-20T15:53:40;7.08;96.51
68257;DHT22;55069;51.568;4.656;2022-11-20T15:56:11;7.14;96.48
68257;DHT22;55069;51.568;4.656;2022-11-20T15:58:36;7.11;96.41
68257;DHT22;55069;51.568;4.656;2022-11-20T16:01:02;7.15;96.46
68257;DHT22;55069;51.568;4.656;2022-11-20T16:03:27;7.18;96.44
68257;DHT22;55069;51.568;4.656;2022-11-20T16:05:53;7.18;96.44
68257;DHT22;55069;51.568;4.656;2022-11-20T16:08:18;7.19;96.44
68257;DHT22;55069;51.568;4.656;2022-11-20T16:10:44;7.22;96.35
68257;DHT22;55069;51.568;4.656;2022-11-20T16:13:17;7.28;96.27
68257;DHT22;55069;51.568;4.656;2022-11-20T16:16:04;7.26;96.34
68257;DHT22;55069;51.568;4.656;2022-11-20T16:18:30;7.28;96.32
68257;DHT22;55069;51.568;4.656;2022-11-20T16:20:56;7.37;96.31
68257;DHT22;55069;51.568;4.656;2022-11-20T16:23:22;7.37;96.36
68257;DHT22;55069;51.568;4.656;2022-11-20T16:25:48;7.42;96.37
68257;DHT22;55069;51.568;4.656;2022-11-20T16:28:13;7.46;96.42
68257;DHT22;55069;51.568;4.656;2022-11-20T16:30:39;7.54;96.38
68257;DHT22;55069;51.568;4.656;2022-11-20T16:33:13;7.62;96.36
68257;DHT22;55069;51.568;4.656;2022-11-20T16:35:39;7.74;96.20
68257;DHT22;55069;51.568;4.656;2022-11-20T16:38:05;7.83;96.03
68257;DHT22;55069;51.568;4.656;2022-11-20T16:40:31;7.99;95.51
68257;DHT22;55069;51.568;4.656;2022-11-20T16:42:56;8.16;94.17
68257;DHT22;55069;51.568;4.656;2022-11-20T16:45:22;8.22;93.19
68257;DHT22;55069;51.568;4.656;2022-11-20T16:47:47;8.41;91.61
68257;DHT22;55069;51.568;4.656;2022-11-20T16:50:13;8.46;91.23
68257;DHT22;55069;51.568;4.656;2022-11-20T16:52:38;8.48;91.10
68257;DHT22;55069;51.568;4.656;2022-11-20T16:55:04;8.46;90.91
68257;DHT22;55069;51.568;4.656;2022-11-20T16:57:31;8.45;90.87
68257;DHT22;55069;51.568;4.656;2022-11-20T16:59:59;8.48;90.47
68257;DHT22;55069;51.568;4.656;2022-11-20T17:02:25;8.54;89.94
68257;DHT22;55069;51.568;4.656;2022-11-20T17:04:53;8.49;89.78
68257;DHT22;55069;51.568;4.656;2022-11-20T17:07:19;8.43;90.07
68257;DHT22;55069;51.568;4.656;2022-11-20T17:09:44;8.41;89.73
68257;DHT22;55069;51.568;4.656;2022-11-20T17:12:10;8.43;89.32
68257;DHT22;55069;51.568;4.656;2022-11-20T17:14:36;8.36;89.60
68257;DHT22;55069;51.568;4.656;2022-11-20T17:17:01;8.31;89.96
68257;DHT22;55069;51.568;4.656;2022-11-20T17:19:27;8.26;89.91
68257;DHT22;55069;51.568;4.656;2022-11-20T17:21:53;8.24;90.15
68257;DHT22;55069;51.568;4.656;2022-11-20T17:24:18;8.14;90.66
68257;DHT22;55069;51.568;4.656;2022-11-20T17:26:44;8.14;90.75